Main page
METAR-TAF:

METAR-TAF

Airports :

Kempegowda International Airport

Bangalore, India

latitude: 13-11-56N, longitude: 077-42-20E, elevation: 915 m

Current weather observation

The report was made 16 minutes ago, at 22:00 UTC
Wind 1 kt from variable directions
Temperature 20°C
Humidity 100%
Pressure 1015 hPa
Visibility: 6000 m
Scattered clouds at a height of 1200 ft
Scattered clouds at a height of 8000 ft

METAR: VOBL 242200Z VRB01KT 6000 SCT012 SCT080 20/20 Q1015 NOSIG

Time: 03:46 (22:16 UTC)

Forecast

The report was made 2 hours and 16 minutes ago, at 20:00 UTC
Forecast valid from 24 at 21 UTC to 25 at 06 UTC
Wind 5 kt from the East/Southeast
Visibility: 6000 m
Scattered clouds at a height of 1500 ft
Scattered clouds at a height of 8000 ft
Temporary
from 25 at 00 UTC to 25 at 03 UTC
Visibility: 3000 m
Scattered clouds at a height of 1000 ft
Scattered clouds at a height of 8000 ft
mist

TAF: VOBL 242000Z 2421/2506 12005KT 6000 SCT015 SCT080 TEMPO 2500/2503 3000 BR SCT010 SCT080

Weather observations and forecasts of more than 4000 airports (METAR and TAF reports).

The available stations are represented by yellow and red dots on the map.

Hover mouse over dot to see the name of the station.

Then click to see weather observations and forecasts.

To change the map : click on the green buttons with a black cross to zoom in, on the green button with a dash to zoom out, or on the green arrows for adjacent maps.


METAR-TAF: